sensor_id;sensor_type;location;lat;lon;timestamp;P1;durP1;ratioP1;P2;durP2;ratioP2
6149;SDS011;3106;42.670;23.318;2022-07-09T00:01:06;12.10;;;8.23;;
6149;SDS011;3106;42.670;23.318;2022-07-09T00:03:32;12.30;;;8.83;;
6149;SDS011;3106;42.670;23.318;2022-07-09T00:05:59;10.87;;;8.87;;
6149;SDS011;3106;42.670;23.318;2022-07-09T00:08:28;10.90;;;8.90;;
6149;SDS011;3106;42.670;23.318;2022-07-09T00:10:55;15.10;;;10.10;;
6149;SDS011;3106;42.670;23.318;2022-07-09T00:13:23;16.20;;;9.50;;
6149;SDS011;3106;42.670;23.318;2022-07-09T00:15:50;10.70;;;9.40;;
6149;SDS011;3106;42.670;23.318;2022-07-09T00:18:17;22.23;;;10.23;;
6149;SDS011;3106;42.670;23.318;2022-07-09T00:20:44;13.70;;;10.03;;
6149;SDS011;3106;42.670;23.318;2022-07-09T00:23:11;21.00;;;14.17;;
6149;SDS011;3106;42.670;23.318;2022-07-09T00:25:38;21.37;;;15.43;;
6149;SDS011;3106;42.670;23.318;2022-07-09T00:28:05;16.80;;;12.87;;
6149;SDS011;3106;42.670;23.318;2022-07-09T00:30:33;14.50;;;11.30;;
6149;SDS011;3106;42.670;23.318;2022-07-09T00:33:00;13.57;;;9.10;;
6149;SDS011;3106;42.670;23.318;2022-07-09T00:35:27;14.23;;;9.73;;
6149;SDS011;3106;42.670;23.318;2022-07-09T00:37:54;14.70;;;9.43;;
6149;SDS011;3106;42.670;23.318;2022-07-09T00:40:20;12.03;;;9.23;;
6149;SDS011;3106;42.670;23.318;2022-07-09T00:42:47;10.87;;;8.67;;
6149;SDS011;3106;42.670;23.318;2022-07-09T00:45:14;11.73;;;8.27;;
6149;SDS011;3106;42.670;23.318;2022-07-09T00:47:44;12.00;;;8.17;;
6149;SDS011;3106;42.670;23.318;2022-07-09T00:50:11;8.00;;;7.07;;
6149;SDS011;3106;42.670;23.318;2022-07-09T00:52:38;9.40;;;7.73;;
6149;SDS011;3106;42.670;23.318;2022-07-09T00:55:07;11.07;;;7.60;;
6149;SDS011;3106;42.670;23.318;2022-07-09T00:57:36;9.43;;;7.50;;
6149;SDS011;3106;42.670;23.318;2022-07-09T01:00:03;8.10;;;7.00;;
6149;SDS011;3106;42.670;23.318;2022-07-09T01:02:31;9.47;;;7.60;;
6149;SDS011;3106;42.670;23.318;2022-07-09T01:04:59;6.83;;;6.13;;
6149;SDS011;3106;42.670;23.318;2022-07-09T01:07:27;18.50;;;6.07;;
6149;SDS011;3106;42.670;23.318;2022-07-09T01:09:54;8.07;;;6.67;;
6149;SDS011;3106;42.670;23.318;2022-07-09T01:12:20;7.80;;;7.00;;
6149;SDS011;3106;42.670;23.318;2022-07-09T01:14:47;10.20;;;6.03;;
6149;SDS011;3106;42.670;23.318;2022-07-09T01:17:14;7.30;;;6.37;;
6149;SDS011;3106;42.670;23.318;2022-07-09T01:19:41;9.73;;;6.40;;
6149;SDS011;3106;42.670;23.318;2022-07-09T01:22:10;8.70;;;6.57;;
6149;SDS011;3106;42.670;23.318;2022-07-09T01:24:36;7.80;;;6.03;;
6149;SDS011;3106;42.670;23.318;2022-07-09T01:27:03;10.93;;;6.30;;
6149;SDS011;3106;42.670;23.318;2022-07-09T01:29:31;7.13;;;6.30;;
6149;SDS011;3106;42.670;23.318;2022-07-09T01:31:58;7.20;;;5.80;;
6149;SDS011;3106;42.670;23.318;2022-07-09T01:34:25;8.53;;;6.40;;
6149;SDS011;3106;42.670;23.318;2022-07-09T01:36:51;7.23;;;6.10;;
6149;SDS011;3106;42.670;23.318;2022-07-09T01:39:20;6.90;;;6.10;;
6149;SDS011;3106;42.670;23.318;2022-07-09T01:41:46;6.73;;;6.13;;
6149;SDS011;3106;42.670;23.318;2022-07-09T01:44:13;8.07;;;6.50;;
6149;SDS011;3106;42.670;23.318;2022-07-09T01:46:40;7.90;;;6.10;;
6149;SDS011;3106;42.670;23.318;2022-07-09T01:49:07;8.23;;;6.97;;
6149;SDS011;3106;42.670;23.318;2022-07-09T01:51:34;7.10;;;5.80;;
6149;SDS011;3106;42.670;23.318;2022-07-09T01:54:01;9.90;;;6.73;;
6149;SDS011;3106;42.670;23.318;2022-07-09T01:56:30;6.63;;;6.03;;
6149;SDS011;3106;42.670;23.318;2022-07-09T01:58:57;7.20;;;6.50;;
6149;SDS011;3106;42.670;23.318;2022-07-09T02:01:24;6.93;;;6.23;;
6149;SDS011;3106;42.670;23.318;2022-07-09T02:03:51;6.60;;;5.90;;
6149;SDS011;3106;42.670;23.318;2022-07-09T02:06:18;6.53;;;5.83;;
6149;SDS011;3106;42.670;23.318;2022-07-09T02:08:45;6.23;;;5.63;;
6149;SDS011;3106;42.670;23.318;2022-07-09T02:11:12;8.07;;;6.20;;
6149;SDS011;3106;42.670;23.318;2022-07-09T02:13:40;9.83;;;6.80;;
6149;SDS011;3106;42.670;23.318;2022-07-09T02:16:07;6.80;;;5.60;;
6149;SDS011;3106;42.670;23.318;2022-07-09T02:18:34;8.60;;;5.40;;
6149;SDS011;3106;42.670;23.318;2022-07-09T02:21:01;6.30;;;5.70;;
6149;SDS011;3106;42.670;23.318;2022-07-09T02:23:30;6.57;;;5.90;;
6149;SDS011;3106;42.670;23.318;2022-07-09T02:25:57;6.27;;;5.63;;
6149;SDS011;3106;42.670;23.318;2022-07-09T02:28:24;5.80;;;5.30;;
6149;SDS011;3106;42.670;23.318;2022-07-09T02:30:52;5.57;;;5.07;;
6149;SDS011;3106;42.670;23.318;2022-07-09T02:33:19;5.57;;;5.07;;
6149;SDS011;3106;42.670;23.318;2022-07-09T02:35:46;6.87;;;5.20;;
6149;SDS011;3106;42.670;23.318;2022-07-09T02:38:13;5.50;;;5.00;;
6149;SDS011;3106;42.670;23.318;2022-07-09T02:40:39;5.97;;;5.37;;
6149;SDS011;3106;42.670;23.318;2022-07-09T02:43:06;5.40;;;4.90;;
6149;SDS011;3106;42.670;23.318;2022-07-09T02:45:33;7.47;;;5.20;;
6149;SDS011;3106;42.670;23.318;2022-07-09T02:48:01;5.83;;;5.23;;
6149;SDS011;3106;42.670;23.318;2022-07-09T02:50:28;5.30;;;4.80;;
6149;SDS011;3106;42.670;23.318;2022-07-09T02:52:55;10.33;;;4.97;;
6149;SDS011;3106;42.670;23.318;2022-07-09T02:55:22;6.87;;;5.00;;
6149;SDS011;3106;42.670;23.318;2022-07-09T02:57:49;6.30;;;5.13;;
6149;SDS011;3106;42.670;23.318;2022-07-09T03:00:16;6.27;;;5.27;;
6149;SDS011;3106;42.670;23.318;2022-07-09T03:02:42;7.00;;;5.17;;
6149;SDS011;3106;42.670;23.318;2022-07-09T03:05:11;5.70;;;5.10;;
6149;SDS011;3106;42.670;23.318;2022-07-09T03:07:37;7.63;;;4.97;;
6149;SDS011;3106;42.670;23.318;2022-07-09T03:10:05;5.47;;;4.97;;
6149;SDS011;3106;42.670;23.318;2022-07-09T03:12:32;6.80;;;5.00;;
6149;SDS011;3106;42.670;23.318;2022-07-09T03:14:59;5.30;;;4.80;;
6149;SDS011;3106;42.670;23.318;2022-07-09T03:17:25;6.53;;;5.20;;
6149;SDS011;3106;42.670;23.318;2022-07-09T03:19:52;6.13;;;5.43;;
6149;SDS011;3106;42.670;23.318;2022-07-09T03:22:21;6.43;;;5.27;;
6149;SDS011;3106;42.670;23.318;2022-07-09T03:24:48;7.10;;;4.93;;
6149;SDS011;3106;42.670;23.318;2022-07-09T03:27:15;6.33;;;5.00;;
6149;SDS011;3106;42.670;23.318;2022-07-09T03:29:41;5.50;;;4.90;;
6149;SDS011;3106;42.670;23.318;2022-07-09T03:32:08;10.40;;;5.20;;
6149;SDS011;3106;42.670;23.318;2022-07-09T03:34:35;5.03;;;4.50;;
6149;SDS011;3106;42.670;23.318;2022-07-09T03:37:02;5.00;;;4.50;;
6149;SDS011;3106;42.670;23.318;2022-07-09T03:39:30;11.80;;;5.10;;
6149;SDS011;3106;42.670;23.318;2022-07-09T03:41:57;5.50;;;4.60;;
6149;SDS011;3106;42.670;23.318;2022-07-09T03:44:24;8.40;;;5.30;;
6149;SDS011;3106;42.670;23.318;2022-07-09T03:46:51;6.27;;;5.20;;
6149;SDS011;3106;42.670;23.318;2022-07-09T03:49:18;5.60;;;5.10;;
6149;SDS011;3106;42.670;23.318;2022-07-09T03:51:45;6.13;;;5.53;;
6149;SDS011;3106;42.670;23.318;2022-07-09T03:54:11;6.10;;;5.00;;
6149;SDS011;3106;42.670;23.318;2022-07-09T03:56:40;7.63;;;5.00;;
6149;SDS011;3106;42.670;23.318;2022-07-09T03:59:06;6.00;;;5.30;;
6149;SDS011;3106;42.670;23.318;2022-07-09T04:01:33;6.77;;;5.60;;
6149;SDS011;3106;42.670;23.318;2022-07-09T04:04:00;5.50;;;4.90;;
6149;SDS011;3106;42.670;23.318;2022-07-09T04:06:27;8.37;;;5.80;;
6149;SDS011;3106;42.670;23.318;2022-07-09T04:08:54;7.37;;;5.67;;
6149;SDS011;3106;42.670;23.318;2022-07-09T04:11:21;5.80;;;5.20;;
6149;SDS011;3106;42.670;23.318;2022-07-09T04:13:50;5.73;;;5.17;;
6149;SDS011;3106;42.670;23.318;2022-07-09T04:16:16;7.90;;;7.10;;
6149;SDS011;3106;42.670;23.318;2022-07-09T04:18:43;17.77;;;11.03;;
6149;SDS011;3106;42.670;23.318;2022-07-09T04:21:10;6.57;;;5.97;;
6149;SDS011;3106;42.670;23.318;2022-07-09T04:23:37;11.03;;;5.30;;
6149;SDS011;3106;42.670;23.318;2022-07-09T04:26:04;9.60;;;5.47;;
6149;SDS011;3106;42.670;23.318;2022-07-09T04:28:31;6.07;;;5.47;;
6149;SDS011;3106;42.670;23.318;2022-07-09T04:31:01;6.10;;;5.50;;
6149;SDS011;3106;42.670;23.318;2022-07-09T04:33:28;7.27;;;5.30;;
6149;SDS011;3106;42.670;23.318;2022-07-09T04:35:55;6.80;;;6.10;;
6149;SDS011;3106;42.670;23.318;2022-07-09T04:38:21;6.30;;;5.70;;
6149;SDS011;3106;42.670;23.318;2022-07-09T04:40:48;7.37;;;6.53;;
6149;SDS011;3106;42.670;23.318;2022-07-09T04:43:15;9.03;;;5.87;;
6149;SDS011;3106;42.670;23.318;2022-07-09T04:45:42;6.73;;;5.77;;
6149;SDS011;3106;42.670;23.318;2022-07-09T04:48:10;8.30;;;6.10;;
6149;SDS011;3106;42.670;23.318;2022-07-09T04:50:37;7.60;;;5.60;;
6149;SDS011;3106;42.670;23.318;2022-07-09T04:53:04;6.50;;;5.43;;
6149;SDS011;3106;42.670;23.318;2022-07-09T04:55:31;7.90;;;5.90;;
6149;SDS011;3106;42.670;23.318;2022-07-09T04:57:58;7.10;;;5.30;;
6149;SDS011;3106;42.670;23.318;2022-07-09T05:00:25;5.77;;;5.17;;
6149;SDS011;3106;42.670;23.318;2022-07-09T05:02:51;8.47;;;6.00;;
6149;SDS011;3106;42.670;23.318;2022-07-09T05:05:20;7.20;;;6.50;;
6149;SDS011;3106;42.670;23.318;2022-07-09T05:07:48;8.00;;;5.90;;
6149;SDS011;3106;42.670;23.318;2022-07-09T05:10:15;10.00;;;5.53;;
6149;SDS011;3106;42.670;23.318;2022-07-09T05:12:42;9.07;;;5.13;;
6149;SDS011;3106;42.670;23.318;2022-07-09T05:15:09;7.13;;;5.80;;
6149;SDS011;3106;42.670;23.318;2022-07-09T05:17:37;5.57;;;5.07;;
6149;SDS011;3106;42.670;23.318;2022-07-09T05:20:05;6.50;;;5.80;;
6149;SDS011;3106;42.670;23.318;2022-07-09T05:22:36;6.10;;;5.50;;
6149;SDS011;3106;42.670;23.318;2022-07-09T05:25:04;6.03;;;5.37;;
6149;SDS011;3106;42.670;23.318;2022-07-09T05:27:31;5.00;;;4.53;;
6149;SDS011;3106;42.670;23.318;2022-07-09T05:29:58;5.73;;;5.20;;
6149;SDS011;3106;42.670;23.318;2022-07-09T05:32:25;5.50;;;4.70;;
6149;SDS011;3106;42.670;23.318;2022-07-09T05:34:52;5.47;;;4.70;;
6149;SDS011;3106;42.670;23.318;2022-07-09T05:37:19;4.37;;;3.97;;
6149;SDS011;3106;42.670;23.318;2022-07-09T05:39:47;6.70;;;4.70;;
6149;SDS011;3106;42.670;23.318;2022-07-09T05:42:14;5.07;;;4.57;;
6149;SDS011;3106;42.670;23.318;2022-07-09T05:44:41;4.63;;;4.23;;
6149;SDS011;3106;42.670;23.318;2022-07-09T05:47:08;6.03;;;5.20;;
6149;SDS011;3106;42.670;23.318;2022-07-09T05:49:34;4.80;;;4.40;;
6149;SDS011;3106;42.670;23.318;2022-07-09T05:52:02;5.20;;;4.70;;
6149;SDS011;3106;42.670;23.318;2022-07-09T05:54:29;7.47;;;5.47;;
6149;SDS011;3106;42.670;23.318;2022-07-09T05:56:57;5.10;;;4.53;;
6149;SDS011;3106;42.670;23.318;2022-07-09T05:59:24;5.17;;;4.67;;
6149;SDS011;3106;42.670;23.318;2022-07-09T06:01:50;5.20;;;4.67;;
6149;SDS011;3106;42.670;23.318;2022-07-09T06:04:17;6.87;;;4.53;;
6149;SDS011;3106;42.670;23.318;2022-07-09T06:06:44;5.33;;;4.63;;
6149;SDS011;3106;42.670;23.318;2022-07-09T06:09:11;4.43;;;4.00;;
6149;SDS011;3106;42.670;23.318;2022-07-09T06:11:38;4.00;;;3.63;;
6149;SDS011;3106;42.670;23.318;2022-07-09T06:14:06;4.90;;;3.73;;
6149;SDS011;3106;42.670;23.318;2022-07-09T06:16:33;7.27;;;3.83;;
6149;SDS011;3106;42.670;23.318;2022-07-09T06:19:00;6.17;;;4.17;;
6149;SDS011;3106;42.670;23.318;2022-07-09T06:21:26;5.57;;;4.03;;
6149;SDS011;3106;42.670;23.318;2022-07-09T06:23:53;5.93;;;4.40;;
6149;SDS011;3106;42.670;23.318;2022-07-09T06:26:20;6.70;;;4.13;;
6149;SDS011;3106;42.670;23.318;2022-07-09T06:28:47;8.03;;;4.40;;
6149;SDS011;3106;42.670;23.318;2022-07-09T06:31:15;5.20;;;4.60;;
6149;SDS011;3106;42.670;23.318;2022-07-09T06:33:42;4.73;;;4.33;;
6149;SDS011;3106;42.670;23.318;2022-07-09T06:36:09;4.60;;;4.20;;
6149;SDS011;3106;42.670;23.318;2022-07-09T06:38:36;4.60;;;4.20;;
6149;SDS011;3106;42.670;23.318;2022-07-09T06:41:22;5.23;;;4.70;;
6149;SDS011;3106;42.670;23.318;2022-07-09T06:43:49;6.53;;;4.60;;
6149;SDS011;3106;42.670;23.318;2022-07-09T06:46:17;5.00;;;4.50;;
6149;SDS011;3106;42.670;23.318;2022-07-09T06:48:44;10.17;;;5.00;;
6149;SDS011;3106;42.670;23.318;2022-07-09T06:51:11;7.83;;;5.07;;
6149;SDS011;3106;42.670;23.318;2022-07-09T06:53:38;5.30;;;4.80;;
6149;SDS011;3106;42.670;23.318;2022-07-09T06:56:05;5.33;;;4.77;;
6149;SDS011;3106;42.670;23.318;2022-07-09T06:58:32;7.23;;;5.73;;
6149;SDS011;3106;42.670;23.318;2022-07-09T07:00:59;5.67;;;5.00;;
6149;SDS011;3106;42.670;23.318;2022-07-09T07:03:27;11.90;;;5.73;;
6149;SDS011;3106;42.670;23.318;2022-07-09T07:05:54;14.00;;;10.40;;
6149;SDS011;3106;42.670;23.318;2022-07-09T07:08:21;6.13;;;5.30;;
6149;SDS011;3106;42.670;23.318;2022-07-09T07:10:48;12.40;;;8.80;;
6149;SDS011;3106;42.670;23.318;2022-07-09T07:13:15;13.03;;;6.43;;
6149;SDS011;3106;42.670;23.318;2022-07-09T07:15:42;14.30;;;8.50;;
6149;SDS011;3106;42.670;23.318;2022-07-09T07:18:09;10.90;;;9.13;;
6149;SDS011;3106;42.670;23.318;2022-07-09T07:20:38;20.07;;;15.00;;
6149;SDS011;3106;42.670;23.318;2022-07-09T07:23:04;15.03;;;10.93;;
6149;SDS011;3106;42.670;23.318;2022-07-09T07:25:31;10.80;;;7.87;;
6149;SDS011;3106;42.670;23.318;2022-07-09T07:27:58;7.27;;;6.53;;
6149;SDS011;3106;42.670;23.318;2022-07-09T07:30:26;7.90;;;6.47;;
6149;SDS011;3106;42.670;23.318;2022-07-09T07:32:53;7.20;;;6.50;;
6149;SDS011;3106;42.670;23.318;2022-07-09T07:35:20;7.63;;;5.70;;
6149;SDS011;3106;42.670;23.318;2022-07-09T07:37:49;6.20;;;5.60;;
6149;SDS011;3106;42.670;23.318;2022-07-09T07:40:15;11.57;;;8.17;;
6149;SDS011;3106;42.670;23.318;2022-07-09T07:42:42;11.93;;;5.87;;
6149;SDS011;3106;42.670;23.318;2022-07-09T07:45:10;6.27;;;5.67;;
6149;SDS011;3106;42.670;23.318;2022-07-09T07:47:37;5.70;;;5.10;;
6149;SDS011;3106;42.670;23.318;2022-07-09T07:50:04;6.30;;;5.70;;
6149;SDS011;3106;42.670;23.318;2022-07-09T07:52:31;6.80;;;5.73;;
6149;SDS011;3106;42.670;23.318;2022-07-09T07:55:00;5.20;;;4.77;;
6149;SDS011;3106;42.670;23.318;2022-07-09T07:57:27;6.07;;;5.10;;
6149;SDS011;3106;42.670;23.318;2022-07-09T07:59:53;6.73;;;5.97;;
6149;SDS011;3106;42.670;23.318;2022-07-09T08:02:20;8.17;;;5.13;;
6149;SDS011;3106;42.670;23.318;2022-07-09T08:04:47;5.20;;;4.70;;
6149;SDS011;3106;42.670;23.318;2022-07-09T08:07:14;5.83;;;5.23;;
6149;SDS011;3106;42.670;23.318;2022-07-09T08:09:41;10.10;;;5.00;;
6149;SDS011;3106;42.670;23.318;2022-07-09T08:12:09;5.13;;;4.43;;
6149;SDS011;3106;42.670;23.318;2022-07-09T08:14:36;7.60;;;5.80;;
6149;SDS011;3106;42.670;23.318;2022-07-09T08:17:03;5.40;;;4.90;;
6149;SDS011;3106;42.670;23.318;2022-07-09T08:19:30;5.93;;;5.37;;
6149;SDS011;3106;42.670;23.318;2022-07-09T08:21:57;7.13;;;5.00;;
6149;SDS011;3106;42.670;23.318;2022-07-09T08:24:28;7.13;;;6.43;;
6149;SDS011;3106;42.670;23.318;2022-07-09T08:26:54;6.90;;;5.50;;
6149;SDS011;3106;42.670;23.318;2022-07-09T08:29:23;5.60;;;5.10;;
6149;SDS011;3106;42.670;23.318;2022-07-09T08:31:50;6.47;;;4.73;;
6149;SDS011;3106;42.670;23.318;2022-07-09T08:34:17;4.97;;;4.57;;
6149;SDS011;3106;42.670;23.318;2022-07-09T08:36:44;7.03;;;5.10;;
6149;SDS011;3106;42.670;23.318;2022-07-09T08:39:10;4.50;;;4.10;;
6149;SDS011;3106;42.670;23.318;2022-07-09T08:41:37;6.27;;;4.70;;
6149;SDS011;3106;42.670;23.318;2022-07-09T08:44:05;7.20;;;5.60;;
6149;SDS011;3106;42.670;23.318;2022-07-09T08:46:37;6.70;;;5.90;;
6149;SDS011;3106;42.670;23.318;2022-07-09T08:49:04;5.73;;;5.23;;
6149;SDS011;3106;42.670;23.318;2022-07-09T08:51:33;9.20;;;4.73;;
6149;SDS011;3106;42.670;23.318;2022-07-09T08:54:01;5.37;;;4.53;;
6149;SDS011;3106;42.670;23.318;2022-07-09T08:56:28;11.53;;;5.50;;
6149;SDS011;3106;42.670;23.318;2022-07-09T08:58:55;6.07;;;5.33;;
6149;SDS011;3106;42.670;23.318;2022-07-09T09:01:22;7.90;;;6.20;;
6149;SDS011;3106;42.670;23.318;2022-07-09T09:03:53;6.77;;;6.07;;
6149;SDS011;3106;42.670;23.318;2022-07-09T09:06:21;8.43;;;6.60;;
6149;SDS011;3106;42.670;23.318;2022-07-09T09:08:48;10.83;;;6.50;;
6149;SDS011;3106;42.670;23.318;2022-07-09T09:11:20;7.03;;;5.70;;
6149;SDS011;3106;42.670;23.318;2022-07-09T09:13:49;9.93;;;5.60;;
6149;SDS011;3106;42.670;23.318;2022-07-09T09:16:17;8.13;;;5.30;;
6149;SDS011;3106;42.670;23.318;2022-07-09T09:18:47;9.90;;;6.33;;
6149;SDS011;3106;42.670;23.318;2022-07-09T09:21:18;23.43;;;11.57;;
6149;SDS011;3106;42.670;23.318;2022-07-09T09:23:47;12.70;;;8.20;;
6149;SDS011;3106;42.670;23.318;2022-07-09T09:26:15;8.90;;;6.33;;
6149;SDS011;3106;42.670;23.318;2022-07-09T09:28:46;11.50;;;8.07;;
6149;SDS011;3106;42.670;23.318;2022-07-09T09:31:18;11.93;;;7.60;;
6149;SDS011;3106;42.670;23.318;2022-07-09T09:33:49;8.23;;;6.87;;
6149;SDS011;3106;42.670;23.318;2022-07-09T09:36:31;8.93;;;7.03;;
6149;SDS011;3106;42.670;23.318;2022-07-09T09:39:09;18.07;;;7.77;;
6149;SDS011;3106;42.670;23.318;2022-07-09T09:41:36;10.53;;;7.73;;
6149;SDS011;3106;42.670;23.318;2022-07-09T09:44:04;9.63;;;7.60;;
6149;SDS011;3106;42.670;23.318;2022-07-09T09:46:35;15.30;;;7.80;;
6149;SDS011;3106;42.670;23.318;2022-07-09T09:49:03;9.27;;;8.13;;
6149;SDS011;3106;42.670;23.318;2022-07-09T09:51:35;14.43;;;7.40;;
6149;SDS011;3106;42.670;23.318;2022-07-09T09:54:03;7.80;;;7.00;;
6149;SDS011;3106;42.670;23.318;2022-07-09T09:56:31;8.70;;;7.80;;
6149;SDS011;3106;42.670;23.318;2022-07-09T09:58:58;8.20;;;7.40;;
6149;SDS011;3106;42.670;23.318;2022-07-09T10:01:27;7.07;;;6.23;;
6149;SDS011;3106;42.670;23.318;2022-07-09T10:03:55;8.20;;;7.13;;
6149;SDS011;3106;42.670;23.318;2022-07-09T10:06:22;17.57;;;8.27;;
6149;SDS011;3106;42.670;23.318;2022-07-09T10:08:52;8.47;;;7.57;;
6149;SDS011;3106;42.670;23.318;2022-07-09T10:11:19;9.53;;;7.40;;
6149;SDS011;3106;42.670;23.318;2022-07-09T10:13:49;10.43;;;6.93;;
6149;SDS011;3106;42.670;23.318;2022-07-09T10:16:17;9.57;;;6.50;;
6149;SDS011;3106;42.670;23.318;2022-07-09T10:18:50;8.70;;;6.40;;
6149;SDS011;3106;42.670;23.318;2022-07-09T10:21:18;8.60;;;6.53;;
6149;SDS011;3106;42.670;23.318;2022-07-09T10:23:57;10.10;;;7.30;;
6149;SDS011;3106;42.670;23.318;2022-07-09T10:26:33;7.03;;;5.67;;
6149;SDS011;3106;42.670;23.318;2022-07-09T10:29:02;7.40;;;6.40;;
6149;SDS011;3106;42.670;23.318;2022-07-09T10:31:29;8.70;;;7.23;;
6149;SDS011;3106;42.670;23.318;2022-07-09T10:34:00;8.60;;;6.90;;
6149;SDS011;3106;42.670;23.318;2022-07-09T10:36:33;7.63;;;6.87;;
6149;SDS011;3106;42.670;23.318;2022-07-09T10:39:10;8.90;;;6.40;;
6149;SDS011;3106;42.670;23.318;2022-07-09T10:41:38;7.57;;;6.43;;
6149;SDS011;3106;42.670;23.318;2022-07-09T10:44:05;7.40;;;5.87;;
6149;SDS011;3106;42.670;23.318;2022-07-09T10:46:31;7.80;;;5.70;;
6149;SDS011;3106;42.670;23.318;2022-07-09T10:48:58;6.23;;;5.63;;
6149;SDS011;3106;42.670;23.318;2022-07-09T10:51:27;11.63;;;5.47;;
6149;SDS011;3106;42.670;23.318;2022-07-09T10:53:53;6.40;;;5.70;;
6149;SDS011;3106;42.670;23.318;2022-07-09T10:56:22;5.90;;;4.83;;
6149;SDS011;3106;42.670;23.318;2022-07-09T10:58:49;5.20;;;4.70;;
6149;SDS011;3106;42.670;23.318;2022-07-09T11:01:18;4.27;;;3.60;;
6149;SDS011;3106;42.670;23.318;2022-07-09T11:03:48;4.20;;;3.50;;
6149;SDS011;3106;42.670;23.318;2022-07-09T11:06:16;4.07;;;3.77;;
6149;SDS011;3106;42.670;23.318;2022-07-09T11:08:43;3.97;;;3.60;;
6149;SDS011;3106;42.670;23.318;2022-07-09T11:11:11;3.90;;;3.50;;
6149;SDS011;3106;42.670;23.318;2022-07-09T11:13:39;3.40;;;3.07;;
6149;SDS011;3106;42.670;23.318;2022-07-09T11:16:06;5.50;;;3.50;;
6149;SDS011;3106;42.670;23.318;2022-07-09T11:18:33;4.63;;;3.67;;
6149;SDS011;3106;42.670;23.318;2022-07-09T11:21:00;3.70;;;3.40;;
6149;SDS011;3106;42.670;23.318;2022-07-09T11:23:27;3.30;;;3.07;;
6149;SDS011;3106;42.670;23.318;2022-07-09T11:25:54;3.47;;;3.17;;
6149;SDS011;3106;42.670;23.318;2022-07-09T11:28:21;3.57;;;3.27;;
6149;SDS011;3106;42.670;23.318;2022-07-09T11:30:58;9.27;;;3.10;;
6149;SDS011;3106;42.670;23.318;2022-07-09T11:33:26;3.17;;;2.87;;
6149;SDS011;3106;42.670;23.318;2022-07-09T11:36:16;3.90;;;3.00;;
6149;SDS011;3106;42.670;23.318;2022-07-09T11:38:47;4.63;;;3.03;;
6149;SDS011;3106;42.670;23.318;2022-07-09T11:41:14;5.70;;;3.20;;
6149;SDS011;3106;42.670;23.318;2022-07-09T11:43:45;3.53;;;3.23;;
6149;SDS011;3106;42.670;23.318;2022-07-09T11:46:16;3.33;;;3.13;;
6149;SDS011;3106;42.670;23.318;2022-07-09T11:48:48;3.70;;;3.40;;
6149;SDS011;3106;42.670;23.318;2022-07-09T11:51:25;4.70;;;3.70;;
6149;SDS011;3106;42.670;23.318;2022-07-09T11:53:52;6.27;;;3.53;;
6149;SDS011;3106;42.670;23.318;2022-07-09T11:56:19;5.97;;;3.20;;
6149;SDS011;3106;42.670;23.318;2022-07-09T11:58:48;4.00;;;3.00;;
6149;SDS011;3106;42.670;23.318;2022-07-09T12:01:17;9.13;;;3.60;;
6149;SDS011;3106;42.670;23.318;2022-07-09T12:03:46;3.67;;;3.30;;
6149;SDS011;3106;42.670;23.318;2022-07-09T12:06:13;6.40;;;3.17;;
6149;SDS011;3106;42.670;23.318;2022-07-09T12:08:40;3.93;;;3.63;;
6149;SDS011;3106;42.670;23.318;2022-07-09T12:11:08;3.83;;;3.50;;
6149;SDS011;3106;42.670;23.318;2022-07-09T12:13:35;3.77;;;3.40;;
6149;SDS011;3106;42.670;23.318;2022-07-09T12:16:02;3.50;;;3.07;;
6149;SDS011;3106;42.670;23.318;2022-07-09T12:18:30;3.80;;;3.50;;
6149;SDS011;3106;42.670;23.318;2022-07-09T12:20:57;10.57;;;5.50;;
6149;SDS011;3106;42.670;23.318;2022-07-09T12:23:24;3.73;;;3.20;;
6149;SDS011;3106;42.670;23.318;2022-07-09T12:25:51;3.13;;;2.83;;
6149;SDS011;3106;42.670;23.318;2022-07-09T12:28:18;6.97;;;3.43;;
6149;SDS011;3106;42.670;23.318;2022-07-09T12:30:45;5.23;;;2.83;;
6149;SDS011;3106;42.670;23.318;2022-07-09T12:33:12;9.93;;;3.10;;
6149;SDS011;3106;42.670;23.318;2022-07-09T12:35:40;3.50;;;3.20;;
6149;SDS011;3106;42.670;23.318;2022-07-09T12:38:07;5.33;;;3.10;;
6149;SDS011;3106;42.670;23.318;2022-07-09T12:40:34;4.27;;;3.87;;
6149;SDS011;3106;42.670;23.318;2022-07-09T12:43:01;4.40;;;3.20;;
6149;SDS011;3106;42.670;23.318;2022-07-09T12:45:27;3.10;;;2.80;;
6149;SDS011;3106;42.670;23.318;2022-07-09T12:47:55;3.00;;;2.70;;
6149;SDS011;3106;42.670;23.318;2022-07-09T12:50:22;4.00;;;2.83;;
6149;SDS011;3106;42.670;23.318;2022-07-09T12:52:51;2.70;;;2.50;;
6149;SDS011;3106;42.670;23.318;2022-07-09T12:55:18;7.70;;;3.23;;
6149;SDS011;3106;42.670;23.318;2022-07-09T12:57:45;4.50;;;3.10;;
6149;SDS011;3106;42.670;23.318;2022-07-09T13:00:12;3.07;;;2.83;;
6149;SDS011;3106;42.670;23.318;2022-07-09T13:02:39;3.43;;;3.00;;
6149;SDS011;3106;42.670;23.318;2022-07-09T13:05:07;3.43;;;3.10;;
6149;SDS011;3106;42.670;23.318;2022-07-09T13:07:34;5.93;;;3.10;;
6149;SDS011;3106;42.670;23.318;2022-07-09T13:10:03;4.13;;;3.37;;
6149;SDS011;3106;42.670;23.318;2022-07-09T13:12:30;3.77;;;3.30;;
6149;SDS011;3106;42.670;23.318;2022-07-09T13:14:57;4.03;;;3.00;;
6149;SDS011;3106;42.670;23.318;2022-07-09T13:17:24;4.10;;;3.70;;
6149;SDS011;3106;42.670;23.318;2022-07-09T13:19:51;9.60;;;3.90;;
6149;SDS011;3106;42.670;23.318;2022-07-09T13:22:18;6.80;;;4.33;;
6149;SDS011;3106;42.670;23.318;2022-07-09T13:24:45;3.97;;;3.43;;
6149;SDS011;3106;42.670;23.318;2022-07-09T13:27:13;5.90;;;5.33;;
6149;SDS011;3106;42.670;23.318;2022-07-09T13:29:43;3.73;;;3.43;;
6149;SDS011;3106;42.670;23.318;2022-07-09T13:32:10;3.70;;;3.40;;
6149;SDS011;3106;42.670;23.318;2022-07-09T13:34:37;4.03;;;3.63;;
6149;SDS011;3106;42.670;23.318;2022-07-09T13:37:04;7.97;;;4.10;;
6149;SDS011;3106;42.670;23.318;2022-07-09T13:39:31;4.07;;;3.00;;
6149;SDS011;3106;42.670;23.318;2022-07-09T13:41:57;6.13;;;3.10;;
6149;SDS011;3106;42.670;23.318;2022-07-09T13:44:26;3.73;;;3.40;;
6149;SDS011;3106;42.670;23.318;2022-07-09T13:46:52;3.07;;;2.80;;
6149;SDS011;3106;42.670;23.318;2022-07-09T13:49:19;6.17;;;3.53;;
6149;SDS011;3106;42.670;23.318;2022-07-09T13:51:46;3.50;;;3.20;;
6149;SDS011;3106;42.670;23.318;2022-07-09T13:54:13;7.73;;;3.77;;
6149;SDS011;3106;42.670;23.318;2022-07-09T13:56:40;3.73;;;3.43;;
6149;SDS011;3106;42.670;23.318;2022-07-09T13:59:07;4.40;;;3.97;;
6149;SDS011;3106;42.670;23.318;2022-07-09T14:01:35;3.60;;;3.30;;
6149;SDS011;3106;42.670;23.318;2022-07-09T14:04:02;3.27;;;3.00;;
6149;SDS011;3106;42.670;23.318;2022-07-09T14:06:29;3.63;;;3.33;;
6149;SDS011;3106;42.670;23.318;2022-07-09T14:08:57;6.23;;;2.90;;
6149;SDS011;3106;42.670;23.318;2022-07-09T14:11:24;5.23;;;4.03;;
6149;SDS011;3106;42.670;23.318;2022-07-09T14:13:51;4.70;;;3.70;;
6149;SDS011;3106;42.670;23.318;2022-07-09T14:16:18;6.70;;;5.80;;
6149;SDS011;3106;42.670;23.318;2022-07-09T14:18:46;5.20;;;4.70;;
6149;SDS011;3106;42.670;23.318;2022-07-09T14:21:14;6.27;;;4.90;;
6149;SDS011;3106;42.670;23.318;2022-07-09T14:23:41;3.03;;;2.83;;
6149;SDS011;3106;42.670;23.318;2022-07-09T14:26:13;3.83;;;3.40;;
6149;SDS011;3106;42.670;23.318;2022-07-09T14:28:40;4.33;;;3.57;;
6149;SDS011;3106;42.670;23.318;2022-07-09T14:31:06;4.23;;;3.83;;
6149;SDS011;3106;42.670;23.318;2022-07-09T14:33:33;12.20;;;3.73;;
6149;SDS011;3106;42.670;23.318;2022-07-09T14:36:02;9.37;;;3.47;;
6149;SDS011;3106;42.670;23.318;2022-07-09T14:38:29;7.23;;;4.20;;
6149;SDS011;3106;42.670;23.318;2022-07-09T14:40:55;3.77;;;3.47;;
6149;SDS011;3106;42.670;23.318;2022-07-09T14:43:22;4.60;;;3.20;;
6149;SDS011;3106;42.670;23.318;2022-07-09T14:45:49;4.80;;;3.27;;
6149;SDS011;3106;42.670;23.318;2022-07-09T14:48:16;10.97;;;7.43;;
6149;SDS011;3106;42.670;23.318;2022-07-09T14:50:43;19.70;;;9.53;;
6149;SDS011;3106;42.670;23.318;2022-07-09T14:53:11;4.80;;;4.30;;
6149;SDS011;3106;42.670;23.318;2022-07-09T14:55:38;6.33;;;4.23;;
6149;SDS011;3106;42.670;23.318;2022-07-09T14:58:05;4.43;;;4.00;;
6149;SDS011;3106;42.670;23.318;2022-07-09T15:00:31;4.27;;;3.87;;